Time;durP1;ratioP1;P1;durP2;ratioP2;P2;SDS_P1;SDS_P2;PMS_P1;PMS_P2;Temp;Humidity;BMP_temperature;BMP_pressure;BME280_temperature;BME280_humidity;BME280_pressure;Samples;Min_cycle;Max_cycle;Signal;HPM_P1;HPM_P2
2022/11/26 00:02:17;;;;;;;21.40;13.00;;;;;;;2.62;100.00;97165.47;105145;1301;25316;-76
2022/11/26 00:04:49;;;;;;;20.40;12.10;;;;;;;2.64;100.00;97162.66;105091;1303;22689;-77
2022/11/26 00:07:25;;;;;;;22.30;14.80;;;;;;;2.65;100.00;97164.84;105115;1304;25929;-76
2022/11/26 00:09:58;;;;;;;22.70;14.20;;;;;;;2.58;100.00;97165.15;105093;1304;22474;-76
2022/11/26 00:12:37;;;;;;;19.40;13.20;;;;;;;2.51;100.00;97162.50;105126;1305;22477;-76
2022/11/26 00:15:18;;;;;;;18.00;12.30;;;;;;;2.47;100.00;97173.77;105132;1302;22503;-77
2022/11/26 00:17:50;;;;;;;19.10;13.00;;;;;;;2.39;100.00;97179.13;105132;1302;22489;-77
2022/11/26 00:20:23;;;;;;;19.80;14.80;;;;;;;2.35;100.00;97175.54;105239;1291;24275;-77
2022/11/26 00:23:00;;;;;;;21.10;15.10;;;;;;;2.33;100.00;97182.44;105313;1289;22479;-77
2022/11/26 00:25:38;;;;;;;21.40;14.10;;;;;;;2.30;100.00;97183.42;105113;1304;23089;-76
2022/11/26 00:28:29;;;;;;;21.70;14.60;;;;;;;2.26;100.00;97184.11;105121;1305;25840;-76
2022/11/26 00:31:03;;;;;;;22.00;13.90;;;;;;;2.21;100.00;97187.37;105138;1303;22627;-77
2022/11/26 00:33:34;;;;;;;25.50;17.10;;;;;;;2.14;100.00;97185.41;105126;1293;22460;-77
2022/11/26 00:36:14;;;;;;;26.40;18.30;;;;;;;2.13;100.00;97192.96;105061;1292;23411;-76
2022/11/26 00:38:46;;;;;;;27.50;18.50;;;;;;;2.14;100.00;97190.17;105127;1280;22612;-76
2022/11/26 00:41:20;;;;;;;26.50;18.20;;;;;;;2.13;100.00;97196.58;105101;1287;22481;-76
2022/11/26 00:43:52;;;;;;;29.20;18.60;;;;;;;2.11;100.00;97194.69;105159;1302;22507;-77
2022/11/26 00:46:24;;;;;;;26.60;19.40;;;;;;;2.10;100.00;97191.34;105085;1302;22467;-77
2022/11/26 00:48:55;;;;;;;26.50;17.90;;;;;;;2.10;100.00;97195.00;105122;1294;22465;-76
2022/11/26 00:51:27;;;;;;;27.70;19.90;;;;;;;2.06;100.00;97196.11;105110;1302;25220;-76
2022/11/26 00:54:03;;;;;;;24.60;16.60;;;;;;;2.00;100.00;97197.12;105088;1296;22483;-76
2022/11/26 00:56:35;;;;;;;26.00;18.30;;;;;;;2.01;100.00;97197.44;105114;1289;32488;-76
2022/11/26 00:59:06;;;;;;;25.70;17.50;;;;;;;2.03;100.00;97196.30;105100;1280;22598;-77
2022/11/26 01:01:37;;;;;;;22.90;15.70;;;;;;;2.10;100.00;97198.55;105137;1293;22479;-76
2022/11/26 01:04:09;;;;;;;23.70;14.70;;;;;;;2.17;100.00;97198.02;105175;1292;22460;-76
2022/11/26 01:06:42;;;;;;;24.20;15.60;;;;;;;2.30;100.00;97196.37;105172;1292;22467;-76
2022/11/26 01:09:19;;;;;;;20.30;14.60;;;;;;;2.45;100.00;97197.79;105164;1280;24296;-76
2022/11/26 01:11:51;;;;;;;25.00;16.20;;;;;;;2.52;100.00;97194.66;105122;1289;25079;-76
2022/11/26 01:14:23;;;;;;;23.00;15.30;;;;;;;2.63;100.00;97198.64;105106;1301;25397;-76
2022/11/26 01:16:56;;;;;;;23.50;16.40;;;;;;;2.70;100.00;97199.49;105230;1303;23955;-77
2022/11/26 01:19:28;;;;;;;21.40;14.20;;;;;;;2.72;100.00;97202.86;105206;1294;25887;-76
2022/11/26 01:21:59;;;;;;;23.30;16.60;;;;;;;2.72;100.00;97202.34;105152;1303;22541;-76
2022/11/26 01:24:30;;;;;;;23.90;15.70;;;;;;;2.77;100.00;97204.05;105168;1310;22539;-76
2022/11/26 01:27:01;;;;;;;24.00;16.10;;;;;;;2.79;100.00;97203.80;105124;1304;25377;-76
2022/11/26 01:29:32;;;;;;;24.20;15.80;;;;;;;2.80;100.00;97204.14;105069;1303;22641;-76
2022/11/26 01:32:03;;;;;;;23.00;16.60;;;;;;;2.81;100.00;97209.57;105110;1310;22486;-76
2022/11/26 01:34:35;;;;;;;23.20;16.40;;;;;;;2.78;100.00;97214.40;105068;1304;22489;-76
2022/11/26 01:37:13;;;;;;;25.20;16.40;;;;;;;2.74;100.00;97217.17;105103;1296;25006;-76
2022/11/26 01:39:44;;;;;;;25.10;16.70;;;;;;;2.70;100.00;97216.45;105178;1292;25353;-76
2022/11/26 01:42:26;;;;;;;22.20;14.80;;;;;;;2.66;100.00;97218.98;105144;1295;25384;-76
2022/11/26 01:44:57;;;;;;;24.50;15.90;;;;;;;2.60;100.00;97221.38;105113;1303;22497;-76
2022/11/26 01:47:30;;;;;;;22.10;15.10;;;;;;;2.54;100.00;97223.27;105048;1305;24509;-76
2022/11/26 01:50:46;;;;;;;25.10;17.00;;;;;;;2.56;100.00;97221.82;105066;1297;22538;-76
2022/11/26 01:53:26;;;;;;;22.20;15.20;;;;;;;2.51;100.00;97226.35;103915;1310;1079660;-76
2022/11/26 01:56:00;;;;;;;27.00;18.80;;;;;;;2.49;100.00;97226.17;104610;1310;25108;-76
2022/11/26 01:58:39;;;;;;;23.20;16.30;;;;;;;2.50;100.00;97227.88;104943;1303;22789;-76
2022/11/26 02:01:11;;;;;;;26.80;18.00;;;;;;;2.51;100.00;97227.95;105122;1301;25335;-76
2022/11/26 02:03:55;;;;;;;26.70;18.10;;;;;;;2.50;100.00;97228.73;105141;1304;22468;-76
2022/11/26 02:06:31;;;;;;;26.60;18.60;;;;;;;2.50;100.00;97224.70;105046;1311;22482;-76
2022/11/26 02:09:05;;;;;;;25.60;18.00;;;;;;;2.51;100.00;97228.16;105152;1297;24239;-76
2022/11/26 02:11:36;;;;;;;24.70;18.00;;;;;;;2.49;100.00;97226.96;105143;1305;24258;-76
2022/11/26 02:14:12;;;;;;;27.90;19.50;;;;;;;2.48;100.00;97232.02;105149;1295;24259;-76
2022/11/26 02:17:02;;;;;;;25.10;17.60;;;;;;;2.47;100.00;97230.60;105051;1296;26019;-76
2022/11/26 02:20:13;;;;;;;23.20;17.50;;;;;;;2.45;100.00;97230.55;105097;1302;22536;-76
2022/11/26 02:23:13;;;;;;;24.70;17.10;;;;;;;2.41;100.00;97226.19;105150;1294;22774;-76
2022/11/26 02:25:57;;;;;;;;;;;;;;;2.37;100.00;97233.84;105199;1305;22577;-76
2022/11/26 02:28:57;;;;;;;24.70;17.60;;;;;;;2.35;100.00;97234.45;105141;1303;22459;-76
2022/11/26 02:31:31;;;;;;;;;;;;;;;2.34;100.00;97235.80;105153;1305;22494;-76
2022/11/26 02:34:11;;;;;;;25.10;16.40;;;;;;;2.32;100.00;97238.98;105121;1305;22818;-76
2022/11/26 02:36:51;;;;;;;23.10;15.20;;;;;;;2.33;100.00;97236.85;105121;1296;24391;-76
2022/11/26 02:39:24;;;;;;;21.80;15.70;;;;;;;2.39;100.00;97240.08;105205;1304;22569;-76
2022/11/26 02:41:58;;;;;;;23.10;15.20;;;;;;;2.46;100.00;97238.23;105216;1294;22620;-76
2022/11/26 02:44:39;;;;;;;22.50;16.10;;;;;;;2.50;100.00;97239.04;105196;1295;24687;-76
2022/11/26 02:47:15;;;;;;;20.00;14.90;;;;;;;2.51;100.00;97237.86;105303;1294;22516;-77
2022/11/26 02:49:50;;;;;;;21.90;15.30;;;;;;;2.56;100.00;97235.59;105252;1294;23938;-76
2022/11/26 02:52:23;;;;;;;22.60;15.20;;;;;;;2.59;100.00;97237.58;105155;1297;22585;-76
2022/11/26 02:54:55;;;;;;;22.80;16.10;;;;;;;2.58;100.00;97238.52;105080;1304;22481;-77
2022/11/26 02:57:32;;;;;;;21.60;14.90;;;;;;;2.57;100.00;97239.13;105140;1296;22440;-77
2022/11/26 03:00:07;;;;;;;21.40;14.30;;;;;;;2.60;100.00;97243.61;105135;1297;22484;-76
2022/11/26 03:02:46;;;;;;;22.60;15.80;;;;;;;2.64;100.00;97243.90;105151;1305;22542;-77
2022/11/26 03:05:19;;;;;;;20.50;14.00;;;;;;;2.70;100.00;97238.23;105234;1298;25223;-77
2022/11/26 03:07:52;;;;;;;17.10;11.80;;;;;;;2.73;100.00;97239.73;105140;1302;22816;-77
2022/11/26 03:10:28;;;;;;;16.60;11.70;;;;;;;2.76;100.00;97239.79;105272;1305;22648;-77
2022/11/26 03:13:00;;;;;;;17.80;11.90;;;;;;;2.79;100.00;97242.70;105138;1305;25204;-77
2022/11/26 03:15:31;;;;;;;21.90;14.90;;;;;;;2.82;100.00;97243.30;105168;1296;24247;-77
2022/11/26 03:18:02;;;;;;;19.80;14.10;;;;;;;2.81;100.00;97246.10;105092;1305;22551;-77
2022/11/26 03:20:36;;;;;;;21.50;14.60;;;;;;;2.80;100.00;97245.00;105080;1305;23251;-77
2022/11/26 03:23:08;;;;;;;19.80;13.60;;;;;;;2.77;100.00;97246.79;105113;1305;22538;-77
2022/11/26 03:25:39;;;;;;;19.50;13.30;;;;;;;2.76;100.00;97246.23;105070;1279;24431;-77
2022/11/26 03:28:13;;;;;;;16.90;12.20;;;;;;;2.79;100.00;97248.10;105156;1296;22501;-77
2022/11/26 03:30:44;;;;;;;17.00;12.10;;;;;;;2.86;100.00;97249.64;105128;1305;22712;-77
2022/11/26 03:33:15;;;;;;;17.90;12.30;;;;;;;2.90;100.00;97245.37;105160;1302;22492;-76
2022/11/26 03:35:47;;;;;;;19.70;12.60;;;;;;;2.92;100.00;97248.25;105131;1296;22464;-77
2022/11/26 03:38:18;;;;;;;17.00;11.80;;;;;;;2.91;100.00;97251.27;105235;1300;24220;-76
2022/11/26 03:40:57;;;;;;;18.50;11.90;;;;;;;2.89;100.00;97250.33;105324;1280;22481;-76
2022/11/26 03:43:31;;;;;;;16.00;11.00;;;;;;;2.88;100.00;97255.98;105222;1289;22477;-76
2022/11/26 03:46:02;;;;;;;18.00;11.30;;;;;;;2.88;100.00;97256.06;105064;1304;22967;-76
2022/11/26 03:48:33;;;;;;;17.40;11.70;;;;;;;2.90;100.00;97257.94;105162;1304;22490;-77
2022/11/26 03:51:04;;;;;;;14.40;9.00;;;;;;;2.93;100.00;97260.23;105286;1302;22468;-76
2022/11/26 03:53:38;;;;;;;14.70;8.40;;;;;;;3.02;100.00;97262.08;105133;1305;22479;-76
2022/11/26 03:56:09;;;;;;;13.40;8.20;;;;;;;3.06;100.00;97261.23;105096;1304;25259;-76
2022/11/26 03:58:41;;;;;;;13.30;8.30;;;;;;;3.08;100.00;97265.77;105218;1304;22476;-76
2022/11/26 04:01:13;;;;;;;16.30;11.60;;;;;;;3.07;100.00;97268.06;105128;1305;22545;-76
2022/11/26 04:03:44;;;;;;;16.10;11.30;;;;;;;3.09;100.00;97268.21;105119;1304;22525;-76
2022/11/26 04:06:16;;;;;;;14.80;8.70;;;;;;;3.07;100.00;97271.73;105078;1296;23913;-77
2022/11/26 04:08:48;;;;;;;16.20;11.00;;;;;;;3.08;100.00;97269.59;105167;1302;22626;-76
2022/11/26 04:11:19;;;;;;;15.20;8.50;;;;;;;3.07;100.00;97273.14;105145;1290;23214;-77
2022/11/26 04:13:50;;;;;;;13.00;7.90;;;;;;;3.09;100.00;97271.73;105117;1305;22524;-76
2022/11/26 04:16:21;;;;;;;14.20;10.00;;;;;;;3.09;100.00;97269.95;105114;1283;22480;-76
2022/11/26 04:18:53;;;;;;;17.50;10.70;;;;;;;3.09;100.00;97275.67;105127;1304;22921;-76
2022/11/26 04:21:24;;;;;;;13.40;8.10;;;;;;;3.09;100.00;97270.51;105087;1304;24246;-76
2022/11/26 04:23:55;;;;;;;17.50;10.00;;;;;;;3.07;100.00;97269.15;105119;1305;25252;-77
2022/11/26 04:26:26;;;;;;;14.50;9.00;;;;;;;3.06;100.00;97268.28;105079;1296;26546;-76
2022/11/26 04:28:57;;;;;;;18.30;11.40;;;;;;;3.04;100.00;97267.14;105141;1304;23660;-76
2022/11/26 04:31:28;;;;;;;19.10;10.40;;;;;;;3.03;100.00;97271.29;105242;1301;22466;-76
2022/11/26 04:34:02;;;;;;;17.50;11.80;;;;;;;3.03;100.00;97272.91;105070;1297;22488;-77
2022/11/26 04:36:33;;;;;;;14.80;9.70;;;;;;;3.02;100.00;97275.65;105070;1290;22511;-76
2022/11/26 04:39:05;;;;;;;16.20;10.60;;;;;;;2.99;100.00;97275.69;105125;1304;22606;-76
2022/11/26 04:41:37;;;;;;;16.20;9.50;;;;;;;2.95;100.00;97277.71;105126;1304;22477;-76
2022/11/26 04:44:08;;;;;;;17.20;11.60;;;;;;;2.92;100.00;97276.33;105120;1305;22487;-76
2022/11/26 04:46:41;;;;;;;19.10;11.70;;;;;;;2.91;100.00;97284.52;105088;1296;22982;-77
2022/11/26 04:49:13;;;;;;;17.30;9.60;;;;;;;2.91;100.00;97283.59;105102;1281;22453;-76
2022/11/26 04:51:44;;;;;;;15.20;11.50;;;;;;;2.92;100.00;97286.88;105141;1304;22482;-77
2022/11/26 04:54:15;;;;;;;15.80;11.00;;;;;;;2.93;100.00;97295.73;105106;1298;22476;-76
2022/11/26 04:56:46;;;;;;;16.80;11.00;;;;;;;2.93;100.00;97295.70;105105;1292;25388;-76
2022/11/26 04:59:17;;;;;;;14.80;10.80;;;;;;;2.94;100.00;97295.04;105138;1303;25390;-77
2022/11/26 05:01:49;;;;;;;16.20;11.20;;;;;;;2.89;100.00;97295.01;105100;1297;24256;-76
2022/11/26 05:04:20;;;;;;;15.20;10.70;;;;;;;2.84;100.00;97297.11;105134;1302;22504;-77
2022/11/26 05:06:51;;;;;;;17.90;11.90;;;;;;;2.85;100.00;97300.92;105113;1304;22473;-77
2022/11/26 05:09:23;;;;;;;16.00;10.80;;;;;;;2.80;100.00;97303.80;105103;1305;24302;-77
2022/11/26 05:11:54;;;;;;;16.50;11.70;;;;;;;2.69;99.98;97306.77;105137;1304;25209;-76
2022/11/26 05:14:26;;;;;;;16.70;11.30;;;;;;;2.59;99.88;97308.13;105109;1304;24047;-77
2022/11/26 05:16:57;;;;;;;16.90;11.00;;;;;;;2.53;99.98;97305.66;105054;1297;25494;-76
2022/11/26 05:19:28;;;;;;;16.60;11.40;;;;;;;2.52;100.00;97308.27;105092;1305;22517;-77
2022/11/26 05:21:59;;;;;;;18.80;12.90;;;;;;;2.50;100.00;97306.60;105116;1304;25267;-76
2022/11/26 05:24:30;;;;;;;16.10;11.50;;;;;;;2.45;100.00;97305.71;105104;1289;22932;-77
2022/11/26 05:27:01;;;;;;;18.20;12.70;;;;;;;2.37;100.00;97306.86;105068;1284;23586;-76
2022/11/26 05:29:32;;;;;;;16.40;12.30;;;;;;;2.34;100.00;97310.05;105124;1297;22510;-76
2022/11/26 05:32:08;;;;;;;19.00;14.00;;;;;;;2.36;100.00;97313.83;105105;1305;22452;-76
2022/11/26 05:34:40;;;;;;;17.60;12.30;;;;;;;2.36;100.00;97316.00;105182;1292;22532;-76
2022/11/26 05:37:11;;;;;;;16.40;11.20;;;;;;;2.32;100.00;97319.77;105162;1304;22463;-76
2022/11/26 05:39:42;;;;;;;17.00;11.30;;;;;;;2.29;100.00;97326.04;105284;1294;23733;-76
2022/11/26 05:42:19;;;;;;;18.00;11.30;;;;;;;2.25;100.00;97327.18;105165;1281;22498;-76
2022/11/26 05:44:50;;;;;;;17.60;11.60;;;;;;;2.26;100.00;97325.48;105177;1288;22472;-76
2022/11/26 05:47:21;;;;;;;17.50;12.10;;;;;;;2.27;100.00;97327.05;105131;1305;25377;-76
2022/11/26 05:49:52;;;;;;;18.00;12.00;;;;;;;2.25;100.00;97328.50;105289;1304;25946;-76
2022/11/26 05:52:23;;;;;;;17.80;12.30;;;;;;;2.22;100.00;97331.04;105169;1304;22431;-76
2022/11/26 05:54:57;;;;;;;17.60;12.10;;;;;;;2.22;100.00;97331.36;105116;1305;24259;-76
2022/11/26 05:57:28;;;;;;;17.50;11.70;;;;;;;2.22;100.00;97332.04;105093;1304;22479;-76
2022/11/26 06:00:00;;;;;;;14.70;10.30;;;;;;;2.21;100.00;97336.67;105115;1303;25393;-76
2022/11/26 06:02:31;;;;;;;16.40;11.20;;;;;;;2.20;100.00;97336.44;105119;1305;22898;-76
2022/11/26 06:05:03;;;;;;;15.10;10.40;;;;;;;2.20;100.00;97339.05;105247;1284;22779;-76
2022/11/26 06:07:34;;;;;;;15.90;12.20;;;;;;;2.21;100.00;97342.47;105135;1287;24233;-76
2022/11/26 06:10:08;;;;;;;17.50;11.30;;;;;;;2.20;100.00;97344.28;105138;1304;22472;-76
2022/11/26 06:12:39;;;;;;;16.00;11.80;;;;;;;2.20;100.00;97347.47;105120;1305;22468;-76
2022/11/26 06:15:11;;;;;;;17.30;11.10;;;;;;;2.20;100.00;97351.77;105252;1304;23682;-76
2022/11/26 06:17:43;;;;;;;15.00;10.20;;;;;;;2.20;100.00;97352.98;105204;1302;22618;-76
2022/11/26 06:20:15;;;;;;;15.30;10.60;;;;;;;2.19;100.00;97351.53;105251;1303;22476;-76
2022/11/26 06:22:47;;;;;;;16.50;11.40;;;;;;;2.21;100.00;97355.39;105096;1303;24267;-76
2022/11/26 06:25:18;;;;;;;15.40;11.60;;;;;;;2.24;100.00;97362.06;105235;1296;22484;-76
2022/11/26 06:27:50;;;;;;;15.70;11.10;;;;;;;2.27;100.00;97367.14;105104;1278;23277;-76
2022/11/26 06:30:27;;;;;;;17.70;11.40;;;;;;;2.29;100.00;97370.10;105129;1302;22567;-76
2022/11/26 06:32:58;;;;;;;17.20;12.10;;;;;;;2.32;100.00;97372.70;105190;1297;25265;-76
2022/11/26 06:35:29;;;;;;;16.60;11.10;;;;;;;2.32;100.00;97376.48;105114;1298;22860;-76
2022/11/26 06:38:01;;;;;;;16.60;11.60;;;;;;;2.33;100.00;97378.86;105119;1304;23322;-76
2022/11/26 06:40:34;;;;;;;14.80;10.70;;;;;;;2.34;100.00;97381.30;105149;1281;22459;-76
2022/11/26 06:43:08;;;;;;;18.20;12.00;;;;;;;2.37;100.00;97382.66;105126;1289;22692;-76
2022/11/26 06:45:39;;;;;;;17.30;11.40;;;;;;;2.36;100.00;97383.23;105095;1305;22469;-76
2022/11/26 06:48:10;;;;;;;15.70;11.20;;;;;;;2.42;100.00;97388.34;105110;1305;25393;-76
2022/11/26 06:50:44;;;;;;;16.60;12.10;;;;;;;2.39;100.00;97390.23;105186;1303;25271;-76
2022/11/26 06:53:16;;;;;;;22.30;15.50;;;;;;;2.37;100.00;97392.56;105163;1304;25202;-76
2022/11/26 06:55:49;;;;;;;20.80;15.50;;;;;;;2.35;100.00;97390.36;105092;1304;23241;-76
2022/11/26 06:58:20;;;;;;;19.10;14.00;;;;;;;2.37;100.00;97391.27;105151;1304;22555;-76
2022/11/26 07:00:54;;;;;;;15.00;11.60;;;;;;;2.39;100.00;97392.23;105160;1296;22535;-76
2022/11/26 07:03:26;;;;;;;17.80;11.80;;;;;;;2.47;100.00;97393.02;105150;1291;22488;-76
2022/11/26 07:05:58;;;;;;;15.70;11.70;;;;;;;2.54;100.00;97396.90;105084;1304;22532;-76
2022/11/26 07:08:29;;;;;;;17.00;11.40;;;;;;;2.61;100.00;97397.92;105174;1305;22478;-76
2022/11/26 07:11:04;;;;;;;15.30;11.40;;;;;;;2.58;100.00;97396.56;105146;1305;22477;-76
2022/11/26 07:13:36;;;;;;;17.90;11.20;;;;;;;2.51;100.00;97396.77;105141;1303;22468;-76
2022/11/26 07:16:08;;;;;;;15.90;10.70;;;;;;;2.51;100.00;97401.21;105092;1305;24255;-76
2022/11/26 07:18:39;;;;;;;15.60;11.70;;;;;;;2.53;100.00;97401.04;105122;1295;22490;-76
2022/11/26 07:21:14;;;;;;;17.10;11.40;;;;;;;2.57;100.00;97401.36;105147;1304;22937;-76
2022/11/26 07:23:46;;;;;;;17.80;11.80;;;;;;;2.63;100.00;97401.12;105135;1284;23298;-76
2022/11/26 07:26:20;;;;;;;16.90;11.00;;;;;;;2.64;100.00;97403.33;105139;1291;22487;-76
2022/11/26 07:28:53;;;;;;;13.50;10.40;;;;;;;2.73;100.00;97407.58;105148;1296;22655;-76
2022/11/26 07:31:25;;;;;;;14.80;10.20;;;;;;;3.17;100.00;97408.50;105173;1304;22514;-76
2022/11/26 07:33:58;;;;;;;13.00;9.60;;;;;;;3.85;100.00;97410.09;105123;1304;22507;-76
2022/11/26 07:36:33;;;;;;;14.80;10.10;;;;;;;4.43;100.00;97402.52;105082;1290;22458;-76
2022/11/26 07:39:05;;;;;;;12.60;9.80;;;;;;;4.81;100.00;97405.69;105283;1289;24908;-76
2022/11/26 07:41:39;;;;;;;15.10;9.70;;;;;;;4.89;99.94;97408.15;105187;1288;22824;-76
2022/11/26 07:44:15;;;;;;;11.50;8.90;;;;;;;4.94;99.58;97409.78;105132;1305;22468;-77
2022/11/26 07:46:49;;;;;;;13.40;8.70;;;;;;;5.11;99.49;97410.16;105186;1305;23128;-76
2022/11/26 07:49:21;;;;;;;11.40;8.90;;;;;;;5.23;98.97;97415.90;105145;1299;22476;-77
2022/11/26 07:51:53;;;;;;;11.20;8.50;;;;;;;5.35;98.26;97410.83;105246;1298;25384;-76
2022/11/26 07:54:24;;;;;;;12.00;8.30;;;;;;;5.39;97.47;97416.73;105254;1289;22625;-77
2022/11/26 07:56:56;;;;;;;11.30;8.10;;;;;;;5.32;96.67;97420.95;105141;1303;24044;-77
2022/11/26 07:59:27;;;;;;;12.10;8.30;;;;;;;5.24;96.74;97418.35;105133;1305;24261;-77
2022/11/26 08:02:00;;;;;;;12.80;9.90;;;;;;;5.31;96.75;97418.57;105202;1275;22488;-77
2022/11/26 08:04:31;;;;;;;12.90;8.50;;;;;;;5.44;97.11;97428.09;105136;1303;22472;-77
2022/11/26 08:07:03;;;;;;;14.50;9.60;;;;;;;5.53;97.03;97427.27;105075;1305;22532;-77
2022/11/26 08:09:35;;;;;;;12.40;8.70;;;;;;;5.44;96.00;97427.65;105147;1304;22503;-77
2022/11/26 08:12:08;;;;;;;14.10;8.40;;;;;;;5.31;95.93;97430.77;105107;1281;23368;-76
2022/11/26 08:14:39;;;;;;;14.50;8.60;;;;;;;5.23;95.55;97430.83;105125;1304;22594;-76
2022/11/26 08:17:11;;;;;;;16.40;8.50;;;;;;;5.08;95.18;97433.85;105125;1290;22682;-76
2022/11/26 08:19:42;;;;;;;12.40;8.80;;;;;;;4.90;95.11;97438.41;105135;1304;24402;-77
2022/11/26 08:22:16;;;;;;;12.90;9.80;;;;;;;4.82;95.40;97437.39;105160;1297;22478;-76
2022/11/26 08:24:48;;;;;;;14.20;9.20;;;;;;;4.82;95.80;97441.96;105165;1303;22499;-76
2022/11/26 08:27:19;;;;;;;13.40;9.40;;;;;;;4.84;95.92;97437.52;105215;1304;22697;-76
2022/11/26 08:29:52;;;;;;;12.80;9.60;;;;;;;4.81;95.97;97438.33;105132;1304;22949;-76
2022/11/26 08:32:25;;;;;;;12.30;9.10;;;;;;;4.85;96.17;97437.67;105159;1303;22689;-76
2022/11/26 08:34:56;;;;;;;14.70;9.80;;;;;;;4.82;95.90;97440.09;105076;1303;22623;-76
2022/11/26 08:37:27;;;;;;;14.10;10.20;;;;;;;4.77;96.13;97441.88;105240;1304;22553;-76
2022/11/26 08:39:59;;;;;;;13.60;9.60;;;;;;;4.74;96.06;97443.96;105132;1302;22535;-76
2022/11/26 08:42:30;;;;;;;13.40;9.50;;;;;;;4.72;96.23;97446.75;105109;1296;24262;-76
2022/11/26 08:45:02;;;;;;;13.10;10.10;;;;;;;4.70;96.61;97455.83;105119;1299;22480;-76
2022/11/26 08:47:36;;;;;;;14.20;9.90;;;;;;;4.69;96.57;97453.29;105109;1290;24799;-76
2022/11/26 08:50:09;;;;;;;13.10;9.40;;;;;;;4.66;96.44;97453.94;105241;1290;22478;-76
2022/11/26 08:52:42;;;;;;;13.00;9.60;;;;;;;4.65;96.60;97456.37;105264;1303;22486;-75
2022/11/26 08:55:16;;;;;;;14.00;10.00;;;;;;;4.64;96.92;97460.00;105084;1304;25262;-76
2022/11/26 08:57:48;;;;;;;13.30;9.20;;;;;;;4.67;97.08;97462.15;105133;1305;22520;-76
2022/11/26 09:00:21;;;;;;;13.30;10.10;;;;;;;4.74;97.28;97463.81;105224;1296;22498;-76
2022/11/26 09:02:52;;;;;;;15.50;9.90;;;;;;;4.82;97.36;97465.67;105180;1303;24536;-76
2022/11/26 09:05:24;;;;;;;13.10;9.00;;;;;;;4.89;97.50;97468.64;105142;1296;22569;-76
2022/11/26 09:07:57;;;;;;;11.00;8.10;;;;;;;4.92;97.03;97465.06;105138;1302;22510;-76
2022/11/26 09:10:28;;;;;;;10.70;7.00;;;;;;;4.90;96.69;97469.61;105110;1290;22475;-76
2022/11/26 09:13:00;;;;;;;12.90;7.30;;;;;;;4.92;96.51;97472.50;105146;1290;22491;-76
2022/11/26 09:15:31;;;;;;;10.30;7.60;;;;;;;4.91;96.16;97473.42;105094;1304;22486;-76
2022/11/26 09:18:02;;;;;;;10.00;7.10;;;;;;;4.91;95.91;97474.84;105255;1304;22571;-76
2022/11/26 09:20:34;;;;;;;10.30;7.70;;;;;;;4.92;95.85;97473.30;105122;1296;22544;-76
2022/11/26 09:23:06;;;;;;;12.00;7.20;;;;;;;4.94;95.95;97471.64;105138;1290;22798;-76
2022/11/26 09:25:39;;;;;;;11.80;7.10;;;;;;;4.97;95.84;97477.59;105128;1304;22482;-76
2022/11/26 09:28:11;;;;;;;11.70;7.00;;;;;;;4.99;95.80;97476.13;105150;1288;22506;-76
2022/11/26 09:30:42;;;;;;;11.90;7.20;;;;;;;5.02;95.40;97476.73;105165;1303;22864;-76
2022/11/26 09:33:14;;;;;;;10.70;6.30;;;;;;;5.03;94.84;97476.92;105165;1304;22472;-76
2022/11/26 09:35:46;;;;;;;10.90;6.70;;;;;;;5.04;94.60;97473.88;105102;1305;22515;-76
2022/11/26 09:38:17;;;;;;;11.40;6.40;;;;;;;5.04;94.24;97477.56;105118;1303;24834;-76
2022/11/26 09:40:55;;;;;;;12.90;7.40;;;;;;;5.02;94.04;97474.63;105127;1281;24237;-76
2022/11/26 09:43:35;;;;;;;13.50;7.70;;;;;;;5.01;94.25;97474.23;105218;1304;24426;-76
2022/11/26 09:46:13;;;;;;;9.60;6.30;;;;;;;5.04;94.57;97474.32;105145;1296;25375;-76
2022/11/26 09:48:45;;;;;;;10.80;7.00;;;;;;;5.08;94.52;97475.42;105098;1273;22474;-76
2022/11/26 09:51:19;;;;;;;12.60;7.40;;;;;;;5.11;94.35;97474.02;105142;1281;22485;-76
2022/11/26 09:53:53;;;;;;;13.00;7.70;;;;;;;5.12;94.24;97474.06;105104;1304;22517;-76
2022/11/26 09:56:27;;;;;;;12.90;8.20;;;;;;;5.12;93.93;97474.27;105148;1304;24242;-76
2022/11/26 09:59:01;;;;;;;16.40;9.20;;;;;;;5.09;93.93;97472.30;105174;1299;22500;-76
2022/11/26 10:01:34;;;;;;;12.90;8.40;;;;;;;5.09;94.22;97474.05;105154;1305;22492;-76
2022/11/26 10:04:09;;;;;;;17.30;9.30;;;;;;;5.10;93.96;97474.84;105153;1304;22889;-76
2022/11/26 10:06:50;;;;;;;12.90;7.50;;;;;;;5.11;94.08;97476.13;105098;1281;22467;-76
2022/11/26 10:09:39;;;;;;;15.20;10.10;;;;;;;5.11;94.02;97477.41;105112;1303;23897;-76
2022/11/26 10:12:24;;;;;;;14.50;8.50;;;;;;;5.12;94.01;97479.69;105146;1289;22517;-76
2022/11/26 10:15:03;;;;;;;13.90;8.90;;;;;;;5.10;93.94;97478.31;105140;1305;25927;-76
2022/11/26 10:17:48;;;;;;;13.80;8.20;;;;;;;5.08;93.86;97479.16;105234;1305;22486;-76
2022/11/26 10:20:50;;;;;;;14.10;8.40;;;;;;;5.06;94.05;97481.05;105148;1305;22455;-76
2022/11/26 10:23:28;;;;;;;12.80;7.60;;;;;;;5.07;94.23;97480.77;105329;1304;22476;-76
2022/11/26 10:26:06;;;;;;;12.90;8.60;;;;;;;5.08;94.28;97484.25;105242;1294;22482;-76
2022/11/26 10:28:43;;;;;;;14.20;8.90;;;;;;;5.07;94.25;97490.48;105174;1305;24251;-76
2022/11/26 10:31:21;;;;;;;14.20;8.50;;;;;;;5.05;94.34;97491.16;105271;1295;22595;-76
2022/11/26 10:33:57;;;;;;;13.60;7.80;;;;;;;5.06;94.44;97493.02;105110;1303;22558;-76
2022/11/26 10:36:36;;;;;;;14.30;8.20;;;;;;;5.08;94.37;97496.09;105164;1284;23361;-76
2022/11/26 10:39:12;;;;;;;10.40;6.40;;;;;;;5.10;94.47;97493.52;105209;1292;24360;-76
2022/11/26 10:41:51;;;;;;;13.50;8.90;;;;;;;5.10;94.22;97491.61;105177;1304;22484;-76
2022/11/26 10:44:35;;;;;;;13.80;8.30;;;;;;;5.10;94.34;97494.29;105133;1305;22975;-76
2022/11/26 10:47:27;;;;;;;14.00;8.80;;;;;;;5.11;94.52;97497.10;105167;1284;24275;-76
2022/11/26 10:50:24;;;;;;;14.50;9.30;;;;;;;5.13;94.52;97494.64;105155;1299;24313;-76
2022/11/26 10:53:04;;;;;;;13.60;9.50;;;;;;;5.14;94.54;97491.88;105224;1288;22476;-76
2022/11/26 10:55:38;;;;;;;14.10;8.90;;;;;;;5.18;94.91;97496.07;105108;1295;22489;-76
2022/11/26 10:58:25;;;;;;;13.50;9.00;;;;;;;5.19;94.60;97494.91;105324;1297;25264;-76
2022/11/26 11:01:07;;;;;;;16.70;9.60;;;;;;;5.22;94.72;97491.74;105158;1304;24351;-76
2022/11/26 11:03:51;;;;;;;18.20;11.00;;;;;;;5.23;94.63;97495.86;105141;1304;22531;-76
2022/11/26 11:06:41;;;;;;;13.90;9.80;;;;;;;5.25;95.08;97494.33;105077;1303;25349;-76
2022/11/26 11:09:28;;;;;;;14.80;9.30;;;;;;;5.27;94.73;97499.43;105169;1304;22518;-76
2022/11/26 11:12:19;;;;;;;15.60;10.80;;;;;;;5.26;94.85;97499.77;105116;1305;22821;-76
2022/11/26 11:14:51;;;;;;;12.60;7.80;;;;;;;5.26;95.01;97495.31;105097;1305;24979;-76
2022/11/26 11:17:35;;;;;;;10.40;7.10;;;;;;;5.27;94.94;97494.66;105212;1288;22474;-76
2022/11/26 11:20:28;;;;;;;14.00;8.90;;;;;;;5.26;94.63;97497.27;105174;1296;25376;-76
2022/11/26 11:23:22;;;;;;;17.70;11.70;;;;;;;5.26;94.93;97501.52;105143;1291;24084;-76
2022/11/26 11:26:03;;;;;;;13.70;8.80;;;;;;;5.29;95.32;97501.96;105069;1289;24442;-76
2022/11/26 11:28:41;;;;;;;13.80;8.40;;;;;;;5.30;95.57;97502.26;105094;1276;22482;-76
2022/11/26 11:31:15;;;;;;;14.40;10.00;;;;;;;5.26;95.20;97504.30;105261;1304;22523;-76
2022/11/26 11:33:47;;;;;;;12.60;9.00;;;;;;;5.23;95.28;97504.64;105188;1304;24137;-76
2022/11/26 11:36:28;;;;;;;12.20;8.30;;;;;;;5.17;95.22;97504.41;105072;1305;22485;-76
2022/11/26 11:39:01;;;;;;;12.90;9.30;;;;;;;5.12;95.30;97502.98;105112;1305;23103;-76
2022/11/26 11:41:39;;;;;;;16.60;9.50;;;;;;;5.10;95.56;97501.23;105183;1303;22464;-76
2022/11/26 11:44:18;;;;;;;12.30;7.90;;;;;;;5.05;95.79;97500.55;105142;1295;23273;-76
2022/11/26 11:47:24;;;;;;;11.90;8.70;;;;;;;5.01;95.89;97501.82;105176;1305;22519;-76
2022/11/26 11:50:17;;;;;;;15.90;9.90;;;;;;;4.95;96.16;97505.87;105203;1297;22532;-76